Time;durP1;ratioP1;P1;durP2;ratioP2;P2;SDS_P1;SDS_P2;PMS_P1;PMS_P2;Temp;Humidity;BMP_temperature;BMP_pressure;BME280_temperature;BME280_humidity;BME280_pressure;Samples;Min_cycle;Max_cycle;Signal;HPM_P1;HPM_P2
2023/05/08 00:01:24;;;;;;;79.95;46.05;;;;;;;10.06;100.00;102205.44;5134526;27;20447;-71
2023/05/08 00:03:50;;;;;;;94.90;51.83;;;;;;;10.02;100.00;102196.00;5133982;27;20417;-71
2023/05/08 00:06:16;;;;;;;104.53;53.85;;;;;;;9.99;100.00;102198.84;5133837;27;20065;-71
2023/05/08 00:08:41;;;;;;;114.13;56.22;;;;;;;9.95;100.00;102198.19;5133278;28;20031;-71
2023/05/08 00:11:06;;;;;;;105.10;52.92;;;;;;;9.94;100.00;102200.94;5133990;27;20106;-71
2023/05/08 00:13:32;;;;;;;112.43;56.30;;;;;;;9.94;100.00;102201.81;5134107;27;20463;-71
2023/05/08 00:15:57;;;;;;;106.75;56.53;;;;;;;9.95;100.00;102205.31;5137943;27;20049;-71
2023/05/08 00:18:22;;;;;;;100.75;54.40;;;;;;;9.94;100.00;102196.50;5137931;27;20083;-72
2023/05/08 00:20:48;;;;;;;127.97;60.83;;;;;;;9.95;100.00;102197.34;5137916;27;20031;-72
2023/05/08 00:23:13;;;;;;;120.07;57.92;;;;;;;9.98;100.00;102197.16;5136545;27;20031;-72
2023/05/08 00:25:38;;;;;;;116.20;58.97;;;;;;;9.99;100.00;102201.53;5137933;27;20101;-72
2023/05/08 00:28:04;;;;;;;109.47;54.85;;;;;;;9.96;100.00;102193.75;5138094;27;20122;-72
2023/05/08 00:30:29;;;;;;;107.03;56.13;;;;;;;9.90;100.00;102197.66;5137649;27;20030;-72
2023/05/08 00:32:54;;;;;;;107.55;53.30;;;;;;;9.83;100.00;102197.19;5137866;27;20510;-72
2023/05/08 00:35:20;;;;;;;116.40;56.40;;;;;;;9.77;100.00;102210.06;5137576;27;20543;-72
2023/05/08 00:37:45;;;;;;;115.70;56.28;;;;;;;9.76;100.00;102203.84;5137834;27;20485;-70
2023/05/08 00:40:11;;;;;;;116.88;55.75;;;;;;;9.77;100.00;102210.06;5137451;27;20447;-72
2023/05/08 00:42:37;;;;;;;117.47;56.97;;;;;;;9.78;100.00;102212.59;5137518;27;20050;-72
2023/05/08 00:45:03;;;;;;;119.45;54.92;;;;;;;9.83;100.00;102210.47;5137487;27;20460;-72
2023/05/08 00:47:30;;;;;;;113.97;54.42;;;;;;;9.82;100.00;102214.13;5137373;27;20027;-72
2023/05/08 00:49:57;;;;;;;115.80;54.42;;;;;;;9.80;100.00;102208.03;5137043;27;20050;-71
2023/05/08 00:52:22;;;;;;;108.78;52.78;;;;;;;9.78;100.00;102207.28;5136833;27;20387;-71
2023/05/08 00:54:48;;;;;;;98.32;48.80;;;;;;;9.71;100.00;102203.31;5137199;27;20033;-71
2023/05/08 00:57:15;;;;;;;91.88;47.00;;;;;;;9.65;100.00;102214.34;5135623;27;20048;-71
2023/05/08 00:59:42;;;;;;;105.22;52.53;;;;;;;9.58;100.00;102205.06;5137211;27;20459;-71
2023/05/08 01:02:08;;;;;;;104.65;52.13;;;;;;;9.53;100.00;102208.03;5137697;27;20031;-71
2023/05/08 01:04:35;;;;;;;128.90;55.25;;;;;;;9.52;100.00;102212.50;5137265;27;20023;-72
2023/05/08 01:07:01;;;;;;;114.20;52.88;;;;;;;9.53;100.00;102214.19;5136981;27;20032;-71
2023/05/08 01:09:27;;;;;;;114.07;52.80;;;;;;;9.51;100.00;102207.28;5137016;27;20106;-71
2023/05/08 01:12:03;;;;;;;129.93;57.17;;;;;;;9.51;100.00;102201.97;5135565;27;20127;-71
2023/05/08 01:14:58;;;;;;;115.47;53.20;;;;;;;9.50;100.00;102197.59;5137187;27;20027;-71
2023/05/08 01:17:37;;;;;;;130.77;54.83;;;;;;;9.49;100.00;102202.06;5136764;27;20435;-71
2023/05/08 01:20:33;;;;;;;134.70;56.30;;;;;;;9.47;100.00;102203.09;5135803;27;20424;-71
2023/05/08 01:23:33;;;;;;;136.23;54.60;;;;;;;9.47;100.00;102205.78;5137034;27;20042;-71
2023/05/08 01:26:25;;;;;;;129.48;52.47;;;;;;;9.44;100.00;102203.31;5136631;27;20027;-71
2023/05/08 01:29:06;;;;;;;105.38;47.65;;;;;;;9.45;100.00;102212.97;5136984;27;20023;-71
2023/05/08 01:32:09;;;;;;;124.07;52.03;;;;;;;9.46;100.00;102215.53;5136680;27;20058;-71
2023/05/08 01:34:41;;;;;;;129.18;52.47;;;;;;;9.45;100.00;102210.31;5136467;27;20103;-72
2023/05/08 01:37:13;;;;;;;142.40;56.65;;;;;;;9.46;100.00;102217.34;5136770;27;20106;-71
2023/05/08 01:39:50;;;;;;;126.40;51.80;;;;;;;9.45;100.00;102226.25;5136716;27;20031;-71
2023/05/08 01:42:15;;;;;;;124.80;50.83;;;;;;;9.40;100.00;102221.22;5136261;27;20049;-71
2023/05/08 01:44:45;;;;;;;124.13;52.50;;;;;;;9.35;100.00;102221.53;5136811;27;20511;-71
2023/05/08 01:47:11;;;;;;;134.37;53.80;;;;;;;9.29;100.00;102216.59;5136619;27;20035;-71
2023/05/08 01:49:46;;;;;;;138.52;55.90;;;;;;;9.28;100.00;102216.72;5136157;27;20070;-71
2023/05/08 01:52:43;;;;;;;129.10;52.75;;;;;;;9.30;100.00;102225.41;5136394;27;20023;-71
2023/05/08 01:55:12;;;;;;;145.40;54.58;;;;;;;9.31;100.00;102227.13;5119714;27;20059;-71
2023/05/08 01:57:42;;;;;;;131.15;52.83;;;;;;;9.33;100.00;102228.75;5136356;27;20454;-71
2023/05/08 02:00:08;;;;;;;147.25;56.80;;;;;;;9.36;100.00;102235.69;5135990;27;20080;-71
2023/05/08 02:02:35;;;;;;;148.38;55.83;;;;;;;9.38;100.00;102231.13;5135950;27;20520;-71
2023/05/08 02:05:04;;;;;;;153.15;56.00;;;;;;;9.44;100.00;102236.03;5136076;27;20054;-71
2023/05/08 02:07:33;;;;;;;161.85;59.72;;;;;;;9.49;100.00;102236.63;5136068;27;20059;-71
2023/05/08 02:10:00;;;;;;;178.25;58.45;;;;;;;9.55;100.00;102235.34;5134638;27;20420;-72
2023/05/08 02:12:27;;;;;;;201.20;58.53;;;;;;;9.59;100.00;102239.50;5135725;27;20057;-71
2023/05/08 02:14:54;;;;;;;180.77;60.90;;;;;;;9.62;100.00;102238.47;5135754;27;20027;-71
2023/05/08 02:17:20;;;;;;;206.05;60.42;;;;;;;9.63;100.00;102240.16;5135341;27;20442;-72
2023/05/08 02:19:46;;;;;;;176.93;59.60;;;;;;;9.64;100.00;102234.78;5134929;27;20417;-71
2023/05/08 02:22:15;;;;;;;183.48;59.88;;;;;;;9.66;100.00;102234.66;5135559;27;20034;-71
2023/05/08 02:24:42;;;;;;;217.07;59.72;;;;;;;9.67;100.00;102231.91;5135505;27;20075;-71
2023/05/08 02:27:09;;;;;;;184.45;59.13;;;;;;;9.69;100.00;102229.16;5135576;27;20027;-71
2023/05/08 02:29:36;;;;;;;208.93;60.63;;;;;;;9.69;100.00;102229.16;5135638;27;20023;-71
2023/05/08 02:32:02;;;;;;;201.20;57.75;;;;;;;9.71;100.00;102227.25;5135629;27;20034;-72
2023/05/08 02:34:29;;;;;;;178.27;57.53;;;;;;;9.72;100.00;102231.63;5135317;27;20092;-71
2023/05/08 02:36:56;;;;;;;165.05;54.75;;;;;;;9.74;100.00;102234.16;5133739;27;20420;-71
2023/05/08 02:39:25;;;;;;;223.75;58.50;;;;;;;9.72;100.00;102231.63;5134584;27;20027;-71
2023/05/08 02:41:51;;;;;;;177.65;57.13;;;;;;;9.73;100.00;102235.13;5135933;27;20027;-71
2023/05/08 02:44:17;;;;;;;175.18;54.47;;;;;;;9.73;100.00;102237.78;5135176;27;20034;-71
2023/05/08 02:46:51;;;;;;;196.88;56.95;;;;;;;9.74;100.00;102239.50;5134284;27;20044;-71
2023/05/08 02:49:45;;;;;;;215.75;58.90;;;;;;;9.72;100.00;102239.59;5135365;27;20024;-71
2023/05/08 02:52:21;;;;;;;205.02;58.40;;;;;;;9.75;100.00;102233.19;5135220;27;20367;-70
2023/05/08 02:54:59;;;;;;;197.73;58.50;;;;;;;9.76;100.00;102230.44;5135044;27;20062;-71
2023/05/08 02:57:36;;;;;;;167.25;55.72;;;;;;;9.77;100.00;102226.00;5135108;27;20046;-70
2023/05/08 03:00:06;;;;;;;185.40;55.05;;;;;;;9.75;100.00;102231.41;5134555;27;20460;-71
2023/05/08 03:02:38;;;;;;;167.10;53.03;;;;;;;9.74;100.00;102227.03;5134906;27;20105;-71
2023/05/08 03:05:12;;;;;;;265.23;54.38;;;;;;;9.72;100.00;102228.97;5134563;27;20171;-71
2023/05/08 03:07:39;;;;;;;195.32;54.05;;;;;;;9.71;100.00;102225.44;5134960;27;20111;-72
2023/05/08 03:10:09;;;;;;;125.05;49.78;;;;;;;9.68;100.00;102222.13;5135192;27;20054;-71
2023/05/08 03:12:39;;;;;;;171.02;53.47;;;;;;;9.67;100.00;102225.72;5134502;27;20114;-72
2023/05/08 03:15:08;;;;;;;154.05;51.10;;;;;;;9.66;100.00;102224.88;5133574;27;20470;-71
2023/05/08 03:17:35;;;;;;;181.85;55.60;;;;;;;9.67;100.00;102223.06;5134494;27;20031;-72
2023/05/08 03:20:06;;;;;;;333.20;56.75;;;;;;;9.67;100.00;102228.38;5134714;27;20034;-72
2023/05/08 03:22:34;;;;;;;;;;;;;;;9.64;100.00;102224.16;5134783;27;20110;-72
2023/05/08 03:25:03;;;;;;;182.25;49.47;;;;;;;9.61;100.00;102220.81;5134400;27;19915;-71
2023/05/08 03:27:30;;;;;;;234.95;50.05;;;;;;;9.64;100.00;102229.47;5134238;27;20046;-71
2023/05/08 03:29:58;;;;;;;215.77;48.08;;;;;;;9.63;100.00;102227.75;5134048;27;20062;-71
2023/05/08 03:32:26;;;;;;;162.40;45.30;;;;;;;9.62;100.00;102218.06;5132952;27;20053;-71
2023/05/08 03:34:54;;;;;;;253.05;47.55;;;;;;;9.63;100.00;102221.56;5134068;27;20023;-71
2023/05/08 03:37:20;;;;;;;287.73;49.20;;;;;;;9.61;100.00;102215.50;5133812;27;20038;-71
2023/05/08 03:39:45;;;;;;;189.02;46.60;;;;;;;9.61;100.00;102215.50;5132635;27;20110;-71
2023/05/08 03:42:20;;;;;;;316.27;50.95;;;;;;;9.61;100.00;102212.84;5133978;27;20377;-71
2023/05/08 03:44:49;;;;;;;284.15;48.90;;;;;;;9.63;100.00;102214.47;5133966;27;20039;-71
2023/05/08 03:47:27;;;;;;;209.77;47.85;;;;;;;9.66;100.00;102216.91;5134024;27;20045;-71
2023/05/08 03:49:53;;;;;;;206.38;50.78;;;;;;;9.68;100.00;102209.69;5133843;27;20024;-72
2023/05/08 03:52:18;;;;;;;282.95;50.35;;;;;;;9.75;100.00;102206.63;5134446;27;20027;-71
2023/05/08 03:54:44;;;;;;;262.85;51.10;;;;;;;9.76;100.00;102197.69;5133714;27;20141;-72
2023/05/08 03:57:10;;;;;;;242.45;48.85;;;;;;;9.76;100.00;102201.19;5133266;28;20130;-71
2023/05/08 03:59:58;;;;;;;179.00;45.03;;;;;;;9.76;100.00;102205.69;5134066;28;20031;-71
2023/05/08 04:02:36;;;;;;;311.45;47.38;;;;;;;9.78;100.00;102206.41;5134002;28;20035;-71
2023/05/08 04:05:17;;;;;;;350.02;48.55;;;;;;;9.76;100.00;102211.84;5134262;27;20057;-71
2023/05/08 04:07:52;;;;;;;157.68;43.90;;;;;;;9.78;100.00;102201.09;5134015;27;20102;-71
2023/05/08 04:10:29;;;;;;;182.20;44.58;;;;;;;9.81;100.00;102209.75;5134327;27;20056;-72
2023/05/08 04:13:05;;;;;;;404.48;47.67;;;;;;;9.82;100.00;102213.25;5133990;27;20038;-72
2023/05/08 04:15:37;;;;;;;184.07;40.05;;;;;;;9.81;100.00;102223.03;5134157;27;20031;-71
2023/05/08 04:18:07;;;;;;;174.75;38.85;;;;;;;9.81;100.00;102212.41;5133696;27;20483;-72
2023/05/08 04:20:33;;;;;;;166.63;40.70;;;;;;;9.82;100.00;102211.47;5134020;27;20023;-71
2023/05/08 04:22:59;;;;;;;147.77;36.38;;;;;;;9.82;100.00;102214.13;5133571;27;20076;-71
2023/05/08 04:25:25;;;;;;;166.30;36.13;;;;;;;9.81;100.00;102228.34;5133935;27;20023;-70
2023/05/08 04:27:52;;;;;;;144.60;35.78;;;;;;;9.81;100.00;102223.03;5133588;28;20588;-71
2023/05/08 04:30:17;;;;;;;157.23;33.15;;;;;;;9.80;100.00;102226.63;5132843;28;20034;-70
2023/05/08 04:32:43;;;;;;;140.63;31.52;;;;;;;9.80;100.00;102228.44;5132102;28;20106;-72
2023/05/08 04:35:10;;;;;;;162.32;32.80;;;;;;;9.77;100.00;102228.66;5134113;27;20058;-72
2023/05/08 04:37:35;;;;;;;122.32;30.95;;;;;;;9.76;100.00;102226.94;5132184;28;20106;-71
2023/05/08 04:40:01;;;;;;;128.23;30.92;;;;;;;9.76;100.00;102227.78;5133468;28;20111;-72
2023/05/08 04:42:26;;;;;;;121.65;30.52;;;;;;;9.76;100.00;102229.59;5133484;27;20057;-72
2023/05/08 04:44:53;;;;;;;127.68;31.70;;;;;;;9.77;100.00;102224.19;5133444;27;20040;-72
2023/05/08 04:47:19;;;;;;;203.60;31.10;;;;;;;9.78;100.00;102233.00;5132900;28;20027;-71
2023/05/08 04:49:44;;;;;;;141.82;32.28;;;;;;;9.78;100.00;102228.56;5133337;27;20027;-72
2023/05/08 04:52:10;;;;;;;111.93;29.30;;;;;;;9.80;100.00;102231.94;5132264;28;20038;-72
2023/05/08 04:54:35;;;;;;;134.27;28.95;;;;;;;9.81;100.00;102236.31;5133347;27;20390;-72
2023/05/08 04:57:00;;;;;;;112.05;29.50;;;;;;;9.81;100.00;102239.00;5133193;27;20063;-71
2023/05/08 04:59:28;;;;;;;123.70;31.20;;;;;;;9.82;100.00;102248.69;5133706;27;20031;-72
2023/05/08 05:01:53;;;;;;;129.05;32.20;;;;;;;9.88;100.00;102253.59;5135801;27;20559;-71
2023/05/08 05:04:18;;;;;;;137.80;33.97;;;;;;;9.94;100.00;102256.78;5136721;27;20035;-72
2023/05/08 05:06:44;;;;;;;153.80;33.85;;;;;;;10.03;100.00;102248.19;5136629;27;20069;-72
2023/05/08 05:09:10;;;;;;;142.63;33.42;;;;;;;10.12;100.00;102249.41;5135498;27;20035;-71
2023/05/08 05:11:36;;;;;;;148.38;33.45;;;;;;;10.21;100.00;102252.31;5137213;27;20044;-72
2023/05/08 05:14:01;;;;;;;130.38;32.67;;;;;;;10.27;100.00;102258.16;5135411;27;20398;-72
2023/05/08 05:16:26;;;;;;;131.00;33.75;;;;;;;10.33;100.00;102261.31;5136898;27;20113;-71
2023/05/08 05:18:53;;;;;;;131.48;32.55;;;;;;;10.43;100.00;102263.34;5136838;27;20114;-71
2023/05/08 05:21:18;;;;;;;132.48;32.85;;;;;;;10.52;100.00;102266.22;5136597;27;20039;-71
2023/05/08 05:23:44;;;;;;;122.35;33.05;;;;;;;10.57;100.00;102264.13;5136395;27;20062;-71
2023/05/08 05:26:10;;;;;;;129.98;33.78;;;;;;;10.66;100.00;102264.44;5136573;27;20038;-71
2023/05/08 05:28:35;;;;;;;129.30;33.15;;;;;;;10.81;100.00;102282.03;5137065;27;20043;-71
2023/05/08 05:31:01;;;;;;;123.05;32.00;;;;;;;10.91;100.00;102284.91;5136905;27;20059;-72
2023/05/08 05:33:27;;;;;;;119.70;33.00;;;;;;;11.02;100.00;102276.19;5136029;27;20059;-72
2023/05/08 05:35:52;;;;;;;110.68;31.83;;;;;;;11.12;100.00;102282.56;5136352;27;20114;-72
2023/05/08 05:38:17;;;;;;;108.38;32.58;;;;;;;11.24;100.00;102286.19;5135082;27;20029;-72
2023/05/08 05:40:43;;;;;;;100.38;32.20;;;;;;;11.38;100.00;102288.72;5136449;27;20027;-72
2023/05/08 05:43:08;;;;;;;93.60;31.58;;;;;;;11.52;100.00;102298.41;5136421;27;20107;-72
2023/05/08 05:45:35;;;;;;;84.50;29.85;;;;;;;11.59;100.00;102293.50;5136333;27;20535;-71
2023/05/08 05:48:01;;;;;;;75.93;27.65;;;;;;;11.64;100.00;102296.66;5136190;27;20027;-73
2023/05/08 05:50:27;;;;;;;83.93;29.90;;;;;;;11.66;100.00;102302.75;5136355;27;20091;-72
2023/05/08 05:52:53;;;;;;;89.55;33.25;;;;;;;11.67;100.00;102301.78;5136199;27;20038;-72
2023/05/08 05:55:18;;;;;;;94.70;33.63;;;;;;;11.69;100.00;102299.88;5136038;27;20220;-73
2023/05/08 05:57:44;;;;;;;98.30;35.22;;;;;;;11.75;100.00;102298.59;5136527;27;20098;-72
2023/05/08 06:00:10;;;;;;;80.65;31.38;;;;;;;11.81;100.00;102304.31;5136398;27;20054;-72
2023/05/08 06:02:36;;;;;;;87.47;31.27;;;;;;;11.85;100.00;102306.75;5136169;27;20132;-72
2023/05/08 06:05:01;;;;;;;76.90;29.60;;;;;;;11.80;100.00;102309.75;5135798;27;20481;-72
2023/05/08 06:07:27;;;;;;;79.05;28.65;;;;;;;11.87;100.00;102303.03;5135664;27;20035;-71
2023/05/08 06:09:52;;;;;;;73.47;28.30;;;;;;;12.02;100.00;102303.75;5135391;27;20034;-72
2023/05/08 06:12:18;;;;;;;74.90;28.60;;;;;;;12.06;100.00;102301.69;5135434;27;20527;-72
2023/05/08 06:14:43;;;;;;;72.60;25.73;;;;;;;12.10;100.00;102301.34;5135565;27;20024;-72
2023/05/08 06:17:09;;;;;;;66.47;25.50;;;;;;;12.19;100.00;102301.66;5134303;27;20027;-72
2023/05/08 06:19:35;;;;;;;58.13;23.35;;;;;;;12.31;100.00;102303.38;5135616;27;20106;-73
2023/05/08 06:22:01;;;;;;;62.53;23.88;;;;;;;12.38;100.00;102301.13;5135315;27;20031;-73
2023/05/08 06:24:27;;;;;;;54.95;22.98;;;;;;;12.52;100.00;102301.78;5135688;27;20037;-73
2023/05/08 06:26:52;;;;;;;58.17;23.50;;;;;;;12.64;100.00;102301.81;5135670;27;20114;-73
2023/05/08 06:29:17;;;;;;;54.30;22.65;;;;;;;12.76;100.00;102295.50;5133948;27;20053;-72
2023/05/08 06:31:43;;;;;;;55.53;22.73;;;;;;;12.86;100.00;102296.50;5135322;27;20038;-73
2023/05/08 06:34:08;;;;;;;49.92;22.42;;;;;;;12.92;100.00;102294.34;5135596;27;20024;-72
2023/05/08 06:36:35;;;;;;;52.60;23.02;;;;;;;12.97;100.00;102293.03;5135763;27;20031;-72
2023/05/08 06:39:00;;;;;;;51.55;23.77;;;;;;;13.07;100.00;102290.47;5135085;27;20063;-72
2023/05/08 06:41:26;;;;;;;61.08;25.75;;;;;;;13.16;100.00;102291.59;5135128;27;20045;-72
2023/05/08 06:43:51;;;;;;;58.78;24.52;;;;;;;13.19;100.00;102294.84;5135442;27;20027;-72
2023/05/08 06:46:17;;;;;;;59.78;25.95;;;;;;;13.24;100.00;102289.13;5134908;27;20424;-72
2023/05/08 06:48:42;;;;;;;65.55;27.65;;;;;;;13.27;100.00;102291.59;5134919;27;20356;-71
2023/05/08 06:51:07;;;;;;;60.97;26.48;;;;;;;13.34;100.00;102292.81;5134299;27;20034;-71
2023/05/08 06:53:33;;;;;;;70.57;28.00;;;;;;;13.35;100.00;102288.34;5133094;27;20027;-72
2023/05/08 06:55:58;;;;;;;63.80;27.20;;;;;;;13.43;100.00;102287.72;5134146;27;20138;-72
2023/05/08 06:58:24;;;;;;;59.92;25.80;;;;;;;13.39;100.00;102277.28;5135009;27;20184;-72
2023/05/08 07:00:49;;;;;;;67.18;25.92;;;;;;;13.46;100.00;102284.81;5133640;27;20110;-74
2023/05/08 07:03:15;;;;;;;60.53;25.80;;;;;;;13.48;100.00;102285.53;5134244;27;20027;-73
2023/05/08 07:05:40;;;;;;;62.67;25.58;;;;;;;13.45;100.00;102280.41;5134317;27;20031;-73
2023/05/08 07:08:05;;;;;;;65.05;26.30;;;;;;;13.43;100.00;102274.38;5134668;27;20054;-73
2023/05/08 07:10:31;;;;;;;64.28;26.35;;;;;;;13.51;100.00;102271.91;5134308;27;20038;-73
2023/05/08 07:12:56;;;;;;;67.45;27.10;;;;;;;13.57;100.00;102268.75;5134409;27;20031;-74
2023/05/08 07:15:22;;;;;;;57.08;24.85;;;;;;;13.68;100.00;102263.38;5134027;27;20134;-73
2023/05/08 07:17:47;;;;;;;52.13;25.25;;;;;;;13.81;100.00;102262.38;5134837;27;20035;-72
2023/05/08 07:20:12;;;;;;;64.78;26.10;;;;;;;13.88;100.00;102266.25;5134462;27;20425;-73
2023/05/08 07:22:38;;;;;;;60.58;25.92;;;;;;;13.99;100.00;102263.53;5134075;27;20049;-73
2023/05/08 07:25:04;;;;;;;53.55;25.52;;;;;;;14.24;100.00;102269.53;5133931;27;20031;-72
2023/05/08 07:27:29;;;;;;;63.03;26.80;;;;;;;14.26;100.00;102264.91;5133739;27;20031;-73
2023/05/08 07:29:57;;;;;;;62.28;25.95;;;;;;;14.34;100.00;102267.78;5133216;27;20031;-73
2023/05/08 07:32:22;;;;;;;57.85;26.38;;;;;;;14.51;100.00;102271.72;5134168;27;20475;-72
2023/05/08 07:34:48;;;;;;;59.28;26.42;;;;;;;14.71;100.00;102270.03;5134146;27;20048;-74
2023/05/08 07:37:13;;;;;;;61.28;25.48;;;;;;;14.88;100.00;102268.56;5133833;27;20027;-73
2023/05/08 07:39:38;;;;;;;50.45;24.48;;;;;;;15.01;100.00;102272.91;5133802;27;20080;-73
2023/05/08 07:42:04;;;;;;;45.47;23.38;;;;;;;15.07;100.00;102273.19;5132379;27;20035;-74
2023/05/08 07:44:32;;;;;;;47.95;22.98;;;;;;;15.15;100.00;102267.16;5133744;27;20031;-73
2023/05/08 07:46:57;;;;;;;52.10;23.85;;;;;;;15.16;100.00;102267.03;5133510;27;20443;-72
2023/05/08 07:49:23;;;;;;;44.13;21.98;;;;;;;15.30;100.00;102279.25;5134470;27;20039;-73
2023/05/08 07:51:48;;;;;;;42.35;21.75;;;;;;;15.38;100.00;102269.69;5133353;27;20118;-73
2023/05/08 07:54:14;;;;;;;44.60;21.25;;;;;;;15.37;100.00;102270.66;5133602;27;20027;-73
2023/05/08 07:56:39;;;;;;;43.45;21.30;;;;;;;15.52;100.00;102274.63;5133056;27;20047;-72
2023/05/08 07:59:04;;;;;;;43.08;21.65;;;;;;;15.43;100.00;102270.94;5133709;28;20036;-73
2023/05/08 08:01:30;;;;;;;46.33;20.50;;;;;;;15.50;100.00;102273.94;5133537;27;20033;-73
2023/05/08 08:03:55;;;;;;;45.78;20.33;;;;;;;15.67;100.00;102280.47;5133513;28;20443;-72
2023/05/08 08:06:21;;;;;;;40.05;19.10;;;;;;;15.78;100.00;102271.47;5133776;27;20033;-73
2023/05/08 08:08:46;;;;;;;33.17;16.88;;;;;;;15.91;100.00;102272.06;5132214;28;20531;-73
2023/05/08 08:11:14;;;;;;;33.45;17.25;;;;;;;15.94;100.00;102277.16;5133740;27;20110;-73
2023/05/08 08:13:39;;;;;;;41.75;17.08;;;;;;;16.07;100.00;102268.00;5133255;27;20031;-72
2023/05/08 08:16:05;;;;;;;29.65;15.63;;;;;;;16.28;100.00;102271.38;5133546;27;20092;-73
2023/05/08 08:18:35;;;;;;;29.85;16.60;;;;;;;16.49;100.00;102267.69;5132119;28;20028;-73
2023/05/08 08:21:03;;;;;;;34.35;16.63;;;;;;;16.68;100.00;102274.88;5133953;27;20146;-73
2023/05/08 08:23:29;;;;;;;30.02;15.80;;;;;;;16.84;100.00;102268.88;5133126;27;20031;-73
2023/05/08 08:25:54;;;;;;;29.95;16.23;;;;;;;16.95;100.00;102273.31;5132306;28;20034;-73
2023/05/08 08:28:19;;;;;;;32.78;17.15;;;;;;;17.12;100.00;102275.19;5133350;27;20092;-73
2023/05/08 08:30:45;;;;;;;35.25;18.65;;;;;;;17.09;100.00;102265.59;5132109;28;20027;-73
2023/05/08 08:33:10;;;;;;;43.35;20.38;;;;;;;17.13;100.00;102262.63;5133239;28;20039;-74
2023/05/08 08:35:36;;;;;;;35.97;19.58;;;;;;;17.31;100.00;102266.22;5131770;27;20394;-75
2023/05/08 08:38:02;;;;;;;40.50;21.23;;;;;;;17.38;100.00;102261.94;5137220;27;20122;-73
2023/05/08 08:40:27;;;;;;;37.78;19.85;;;;;;;17.52;100.00;102267.81;5137135;27;20497;-74
2023/05/08 08:42:54;;;;;;;42.83;21.23;;;;;;;17.51;100.00;102258.03;5137084;27;20037;-75
2023/05/08 08:45:19;;;;;;;43.95;22.38;;;;;;;17.70;100.00;102265.97;5137077;27;20028;-74
2023/05/08 08:47:47;;;;;;;41.97;22.83;;;;;;;17.75;100.00;102261.00;5137756;27;20499;-75
2023/05/08 08:50:13;;;;;;;46.42;24.23;;;;;;;17.90;100.00;102258.66;5137560;27;20027;-74
2023/05/08 08:52:39;;;;;;;46.50;24.75;;;;;;;18.29;100.00;102257.50;5137030;27;20031;-73
2023/05/08 08:55:07;;;;;;;51.88;27.70;;;;;;;18.68;100.00;102259.81;5137263;27;20499;-74
2023/05/08 08:57:35;;;;;;;41.85;23.15;;;;;;;18.92;100.00;102261.84;5137317;27;20043;-74
2023/05/08 09:00:05;;;;;;;40.22;22.20;;;;;;;18.99;100.00;102265.59;5137218;27;20118;-74
2023/05/08 09:02:31;;;;;;;44.05;24.90;;;;;;;18.91;100.00;102254.75;5137106;27;20062;-74
2023/05/08 09:04:57;;;;;;;46.13;24.42;;;;;;;18.92;100.00;102269.09;5137246;27;20073;-72
2023/05/08 09:07:24;;;;;;;56.83;26.02;;;;;;;18.95;100.00;102268.78;5137113;27;20023;-73
2023/05/08 09:09:50;;;;;;;52.30;26.30;;;;;;;19.36;100.00;102266.25;5137466;27;20054;-75
2023/05/08 09:12:16;;;;;;;52.67;28.17;;;;;;;19.56;100.00;102261.47;5135802;27;20024;-75
2023/05/08 09:14:41;;;;;;;59.88;31.77;;;;;;;19.68;100.00;102262.00;5137154;27;20031;-75
2023/05/08 09:17:08;;;;;;;63.58;31.65;;;;;;;19.62;100.00;102257.25;5135348;27;20502;-75
2023/05/08 09:19:34;;;;;;;64.65;33.42;;;;;;;19.44;100.00;102249.28;5136694;27;20027;-75
2023/05/08 09:22:00;;;;;;;70.35;35.30;;;;;;;19.20;100.00;102258.97;5136476;27;20035;-73
2023/05/08 09:24:46;;;;;;;73.65;35.20;;;;;;;19.15;100.00;102262.16;5137073;27;20130;-74
2023/05/08 09:27:22;;;;;;;68.82;35.35;;;;;;;18.77;100.00;102258.88;5136747;27;20031;-74
2023/05/08 09:30:07;;;;;;;80.47;34.30;;;;;;;18.87;100.00;102261.50;5137030;27;20043;-75
2023/05/08 09:32:36;;;;;;;64.35;32.00;;;;;;;19.41;100.00;102261.25;5136689;27;20435;-77
2023/05/08 09:35:03;;;;;;;64.68;33.08;;;;;;;19.78;100.00;102260.03;5136140;27;20034;-73
2023/05/08 09:37:29;;;;;;;67.40;33.38;;;;;;;19.46;100.00;102271.53;5136419;27;20024;-73
2023/05/08 09:40:12;;;;;;;69.22;33.03;;;;;;;19.41;100.00;102263.94;5136284;27;20498;-76
2023/05/08 09:42:37;;;;;;;69.55;33.28;;;;;;;19.17;100.00;102259.28;5136481;27;20039;-73
2023/05/08 09:45:03;;;;;;;61.58;30.65;;;;;;;18.98;100.00;102265.75;5136296;27;20096;-73
2023/05/08 09:47:29;;;;;;;53.40;29.50;;;;;;;19.50;100.00;102264.81;5135682;27;20057;-71
2023/05/08 09:50:09;;;;;;;45.55;27.27;;;;;;;20.58;100.00;102258.53;5136722;27;20050;-73
2023/05/08 09:52:37;;;;;;;36.47;27.55;;;;;;;20.97;100.00;102263.19;5136220;27;20371;-75
2023/05/08 09:55:07;;;;;;;34.35;26.30;;;;;;;21.67;100.00;102257.00;5136248;27;20431;-73
2023/05/08 09:57:37;;;;;;;32.67;26.13;;;;;;;22.06;100.00;102252.50;5136360;27;20063;-75
2023/05/08 10:00:11;;;;;;;32.70;25.52;;;;;;;21.96;100.00;102252.75;5136323;27;20046;-74
2023/05/08 10:02:38;;;;;;;31.50;22.52;;;;;;;21.83;100.00;102255.22;5136123;27;20470;-73
2023/05/08 10:05:30;;;;;;;27.75;23.15;;;;;;;21.97;100.00;102254.44;5136330;27;20043;-74
2023/05/08 10:07:56;;;;;;;28.02;22.90;;;;;;;22.69;100.00;102247.75;5135409;27;20039;-73
2023/05/08 10:10:26;;;;;;;25.98;23.10;;;;;;;22.80;99.11;102259.16;5136134;27;20031;-74
2023/05/08 10:12:54;;;;;;;29.70;24.77;;;;;;;22.46;100.00;102260.50;5134392;27;20035;-75
2023/05/08 10:15:23;;;;;;;28.58;22.35;;;;;;;22.49;100.00;102258.25;5135608;27;20269;-73
2023/05/08 10:18:01;;;;;;;28.13;22.58;;;;;;;22.71;98.93;102251.09;5134563;27;20109;-73
2023/05/08 10:20:29;;;;;;;28.73;23.20;;;;;;;22.81;98.96;102255.41;5136031;27;20031;-73
2023/05/08 10:22:56;;;;;;;26.98;20.67;;;;;;;22.77;98.73;102257.66;5135811;27;20058;-73
2023/05/08 10:25:22;;;;;;;28.52;23.02;;;;;;;22.85;99.96;102260.28;5135138;27;20060;-73
2023/05/08 10:28:12;;;;;;;37.38;25.80;;;;;;;23.32;88.75;102254.66;5135491;27;20467;-73
2023/05/08 10:30:46;;;;;;;31.83;24.88;;;;;;;23.64;83.63;102263.41;5135296;27;20054;-73
2023/05/08 10:33:14;;;;;;;32.38;23.30;;;;;;;23.72;87.49;102261.41;5133881;27;20114;-73
2023/05/08 10:35:40;;;;;;;27.70;22.63;;;;;;;24.20;83.37;102255.44;5135371;27;20023;-73
2023/05/08 10:38:08;;;;;;;25.13;19.00;;;;;;;25.05;70.80;102254.56;5135158;27;20417;-73
2023/05/08 10:40:34;;;;;;;24.63;18.30;;;;;;;25.21;71.07;102251.50;5133627;27;20031;-73
2023/05/08 10:42:59;;;;;;;18.17;14.98;;;;;;;25.21;66.51;102253.41;5134834;27;20122;-73
2023/05/08 10:45:26;;;;;;;16.92;13.00;;;;;;;24.57;72.58;102244.41;5133732;27;20122;-72
2023/05/08 10:48:03;;;;;;;14.45;11.15;;;;;;;25.28;63.97;102243.38;5135155;27;20076;-75
2023/05/08 10:50:38;;;;;;;15.50;11.98;;;;;;;25.07;66.24;102250.63;5134918;27;20062;-76
2023/05/08 10:53:08;;;;;;;16.67;12.73;;;;;;;24.91;67.27;102251.78;5134592;27;20466;-74
2023/05/08 10:55:37;;;;;;;15.90;13.95;;;;;;;24.75;65.15;102250.22;5134618;27;20462;-74
2023/05/08 10:58:16;;;;;;;21.20;16.35;;;;;;;24.50;72.90;102244.38;5134477;27;20039;-73
2023/05/08 11:01:07;;;;;;;19.65;16.15;;;;;;;24.55;69.83;102235.63;5134613;27;20103;-73
2023/05/08 11:03:42;;;;;;;25.50;16.25;;;;;;;24.82;68.14;102236.66;5134982;27;20061;-75
2023/05/08 11:06:08;;;;;;;21.38;17.88;;;;;;;24.86;70.42;102237.94;5135313;27;20038;-72
2023/05/08 11:08:43;;;;;;;25.75;19.35;;;;;;;24.96;68.80;102234.84;5134705;27;20031;-73